createdAt,value
2016-06-26T00:00:15.718Z,0
2016-06-26T00:01:15.127Z,0
2016-06-26T00:02:15.122Z,0
2016-06-26T00:03:15.067Z,0
2016-06-26T00:04:15.638Z,0
2016-06-26T00:05:16.219Z,0
2016-06-26T00:06:15.845Z,0
2016-06-26T00:07:15.719Z,0
2016-06-26T00:08:14.349Z,0
2016-06-26T00:09:15.571Z,0
2016-06-26T00:10:15.500Z,0
2016-06-26T00:11:15.531Z,0
2016-06-26T00:12:15.462Z,0
2016-06-26T00:13:14.278Z,0
2016-06-26T00:14:15.414Z,0
2016-06-26T00:15:14.807Z,0
2016-06-26T00:16:14.783Z,0
2016-06-26T00:17:14.757Z,0
2016-06-26T00:18:15.953Z,0
2016-06-26T00:19:14.706Z,0
2016-06-26T00:20:15.288Z,0
2016-06-26T00:21:14.663Z,0
2016-06-26T00:22:15.259Z,0
2016-06-26T00:23:14.024Z,0
2016-06-26T00:24:14.661Z,0
2016-06-26T00:25:14.584Z,0
2016-06-26T00:26:15.792Z,0
2016-06-26T00:27:14.539Z,0
2016-06-26T00:28:15.415Z,0
2016-06-26T00:29:15.075Z,0
2016-06-26T00:30:14.459Z,0
2016-06-26T00:31:13.833Z,0
2016-06-26T00:32:15.010Z,0
2016-06-26T00:33:14.412Z,0
2016-06-26T00:34:13.796Z,0
2016-06-26T00:35:14.358Z,0
2016-06-26T00:36:15.535Z,0
2016-06-26T00:37:14.445Z,0
2016-06-26T00:38:13.707Z,0
2016-06-26T00:39:14.882Z,0
2016-06-26T00:40:13.706Z,0
2016-06-26T00:41:15.433Z,0
2016-06-26T00:42:15.408Z,0
2016-06-26T00:43:14.188Z,0
2016-06-26T00:44:14.165Z,0
2016-06-26T00:45:15.334Z,0
2016-06-26T00:46:14.122Z,0
2016-06-26T00:47:14.724Z,0
2016-06-26T00:48:15.269Z,0
2016-06-26T00:49:14.654Z,0
2016-06-26T00:50:13.430Z,0
2016-06-26T00:51:15.216Z,0
2016-06-26T00:52:13.982Z,0
2016-06-26T00:53:13.371Z,0
2016-06-26T00:54:15.173Z,0
2016-06-26T00:55:14.498Z,0
2016-06-26T00:56:13.902Z,0
2016-06-26T00:57:13.285Z,0
2016-06-26T00:58:13.854Z,0
2016-06-26T00:59:13.826Z,0
2016-06-26T01:00:13.850Z,0
2016-06-26T01:01:14.985Z,0
2016-06-26T01:02:14.378Z,0
2016-06-26T01:03:14.342Z,0
2016-06-26T01:04:13.730Z,0
2016-06-26T01:05:14.277Z,0
2016-06-26T01:06:13.689Z,0
2016-06-26T01:07:13.659Z,0
2016-06-26T01:08:13.618Z,0
2016-06-26T01:09:14.208Z,0
2016-06-26T01:10:14.188Z,0
2016-06-26T01:11:14.160Z,0
2016-06-26T01:12:12.942Z,0
2016-06-26T01:13:14.718Z,0
2016-06-26T01:14:13.499Z,0
2016-06-26T01:15:12.910Z,0
2016-06-26T01:16:14.051Z,0
2016-06-26T01:17:13.430Z,0
2016-06-26T01:18:14.209Z,0
2016-06-26T01:19:13.975Z,0
2016-06-26T01:20:13.970Z,0
2016-06-26T01:21:14.535Z,0
2016-06-26T01:22:13.916Z,0
2016-06-26T01:23:13.294Z,0
2016-06-26T01:24:13.881Z,0
2016-06-26T01:25:13.300Z,0
2016-06-26T01:26:13.240Z,0
2016-06-26T01:27:13.826Z,0
2016-06-26T01:28:13.188Z,0
2016-06-26T01:29:13.183Z,0
2016-06-26T01:30:13.156Z,0
2016-06-26T01:31:13.725Z,0
2016-06-26T01:32:14.307Z,0
2016-06-26T01:33:14.270Z,0
2016-06-26T01:34:13.072Z,0
2016-06-26T01:35:13.660Z,0
2016-06-26T01:36:13.048Z,0
2016-06-26T01:37:12.995Z,0
2016-06-26T01:38:13.583Z,0
2016-06-26T01:39:12.947Z,0
2016-06-26T01:40:12.323Z,0
2016-06-26T01:41:13.503Z,0
2016-06-26T01:42:14.126Z,0
2016-06-26T01:43:13.446Z,0
2016-06-26T01:44:12.826Z,0
2016-06-26T01:45:12.799Z,0
2016-06-26T01:46:12.181Z,0
2016-06-26T01:47:12.766Z,0
2016-06-26T01:48:12.729Z,0
2016-06-26T01:49:13.327Z,0
2016-06-26T01:50:12.696Z,0
2016-06-26T01:51:12.671Z,0
2016-06-26T01:52:13.848Z,0
2016-06-26T01:53:13.835Z,0
2016-06-26T01:54:13.207Z,0
2016-06-26T01:55:12.583Z,0
2016-06-26T01:56:11.954Z,0
2016-06-26T01:57:13.144Z,0
2016-06-26T01:58:12.546Z,0
2016-06-26T01:59:11.960Z,0
2016-06-26T02:00:13.691Z,0
2016-06-26T02:01:12.453Z,0
2016-06-26T02:02:13.684Z,0
2016-06-26T02:03:12.423Z,0
2016-06-26T02:04:13.580Z,0
2016-06-26T02:05:12.963Z,0
2016-06-26T02:06:12.959Z,0
2016-06-26T02:07:12.909Z,0
2016-06-26T02:08:12.311Z,0
2016-06-26T02:09:11.680Z,0
2016-06-26T02:10:13.454Z,0
2016-06-26T02:11:13.415Z,0
2016-06-26T02:12:12.209Z,0
2016-06-26T02:13:11.597Z,0
2016-06-26T02:14:12.175Z,0
2016-06-26T02:15:13.428Z,0
2016-06-26T02:16:12.830Z,0
2016-06-26T02:17:12.094Z,0
2016-06-26T02:18:12.685Z,0
2016-06-26T02:19:12.649Z,0
2016-06-26T02:20:12.623Z,0
2016-06-26T02:21:11.430Z,0
2016-06-26T02:22:11.990Z,4
2016-06-26T02:23:11.948Z,4
2016-06-26T02:24:11.962Z,4
2016-06-26T02:25:12.500Z,0
2016-06-26T02:26:11.899Z,0
2016-06-26T02:27:12.470Z,4
2016-06-26T02:28:12.436Z,4
2016-06-26T02:29:12.425Z,4
2016-06-26T02:30:11.223Z,4
2016-06-26T02:31:11.780Z,4
2016-06-26T02:32:12.989Z,8
2016-06-26T02:33:11.739Z,4
2016-06-26T02:34:12.314Z,8
2016-06-26T02:35:12.289Z,4
2016-06-26T02:36:12.880Z,8
2016-06-26T02:37:11.630Z,8
2016-06-26T02:38:12.222Z,12
2016-06-26T02:39:10.998Z,12
2016-06-26T02:40:11.574Z,16
2016-06-26T02:41:10.966Z,16
2016-06-26T02:42:10.936Z,20
2016-06-26T02:43:11.510Z,20
2016-06-26T02:44:12.103Z,24
2016-06-26T02:45:10.858Z,28
2016-06-26T02:46:12.035Z,28
2016-06-26T02:47:10.807Z,32
2016-06-26T02:48:11.994Z,36
2016-06-26T02:49:11.963Z,44
2016-06-26T02:50:12.542Z,48
2016-06-26T02:51:11.338Z,52
2016-06-26T02:52:12.512Z,56
2016-06-26T02:53:11.904Z,64
2016-06-26T02:54:11.869Z,72
2016-06-26T02:55:11.244Z,80
2016-06-26T02:56:11.813Z,88
2016-06-26T02:57:11.789Z,96
2016-06-26T02:58:11.167Z,108
2016-06-26T02:59:12.403Z,120
2016-06-26T03:00:10.527Z,132
2016-06-26T03:01:12.294Z,144
2016-06-26T03:02:11.685Z,156
2016-06-26T03:03:11.066Z,168
2016-06-26T03:04:11.626Z,184
2016-06-26T03:05:11.612Z,200
2016-06-26T03:06:11.594Z,216
2016-06-26T03:07:10.969Z,236
2016-06-26T03:08:10.936Z,256
2016-06-26T03:09:11.526Z,276
2016-06-26T03:10:11.501Z,296
2016-06-26T03:11:10.881Z,320
2016-06-26T03:12:10.851Z,348
2016-06-26T03:13:10.246Z,376
2016-06-26T03:14:10.796Z,404
2016-06-26T03:15:10.789Z,432
2016-06-26T03:16:11.360Z,468
2016-06-26T03:17:10.731Z,492
2016-06-26T03:18:11.342Z,528
2016-06-26T03:19:10.098Z,560
2016-06-26T03:20:11.284Z,596
2016-06-26T03:21:10.640Z,632
2016-06-26T03:22:11.234Z,672
2016-06-26T03:23:10.604Z,712
2016-06-26T03:24:11.166Z,756
2016-06-26T03:25:11.767Z,800
2016-06-26T03:26:11.165Z,852
2016-06-26T03:27:10.507Z,920
2016-06-26T03:28:10.485Z,1000
2016-06-26T03:29:11.661Z,1068
2016-06-26T03:30:09.873Z,1124
2016-06-26T03:31:10.431Z,1176
2016-06-26T03:32:09.810Z,1224
2016-06-26T03:33:09.775Z,1280
2016-06-26T03:34:10.959Z,1336
2016-06-26T03:35:10.340Z,1396
2016-06-26T03:36:10.304Z,1460
2016-06-26T03:37:09.698Z,1532
2016-06-26T03:38:10.865Z,1604
2016-06-26T03:39:09.638Z,1684
2016-06-26T03:40:11.457Z,1768
2016-06-26T03:41:09.586Z,1848
2016-06-26T03:42:09.575Z,1928
2016-06-26T03:43:10.751Z,2036
2016-06-26T03:44:10.728Z,2100
2016-06-26T03:45:11.315Z,2144
2016-06-26T03:46:10.689Z,2168
2016-06-26T03:47:10.657Z,2196
2016-06-26T03:48:10.645Z,2216
2016-06-26T03:49:11.207Z,2252
2016-06-26T03:50:11.182Z,2300
2016-06-26T03:51:10.566Z,2352
2016-06-26T03:52:09.958Z,2416
2016-06-26T03:53:09.333Z,2496
2016-06-26T03:54:09.303Z,2560
2016-06-26T03:55:11.080Z,2636
2016-06-26T03:56:10.475Z,2720
2016-06-26T03:57:09.841Z,2796
2016-06-26T03:58:11.013Z,2868
2016-06-26T03:59:09.790Z,2948
2016-06-26T04:00:10.978Z,3024
2016-06-26T04:01:10.349Z,3100
2016-06-26T04:02:10.929Z,3232
2016-06-26T04:03:09.704Z,3296
2016-06-26T04:04:10.278Z,3340
2016-06-26T04:05:10.256Z,3388
2016-06-26T04:06:10.234Z,3424
2016-06-26T04:07:10.218Z,3464
2016-06-26T04:08:10.196Z,3500
2016-06-26T04:09:08.974Z,3548
2016-06-26T04:10:10.737Z,3624
2016-06-26T04:11:09.508Z,3676
2016-06-26T04:12:10.131Z,3728
2016-06-26T04:13:09.468Z,3780
2016-06-26T04:14:08.859Z,3824
2016-06-26T04:15:09.433Z,3884
2016-06-26T04:16:10.031Z,3960
2016-06-26T04:17:09.993Z,4044
2016-06-26T04:18:09.365Z,4116
2016-06-26T04:19:09.949Z,4164
2016-06-26T04:20:09.332Z,4196
2016-06-26T04:21:09.913Z,4256
2016-06-26T04:22:09.884Z,4324
2016-06-26T04:23:09.858Z,4364
2016-06-26T04:24:09.256Z,4444
2016-06-26T04:25:10.426Z,4528
2016-06-26T04:26:09.794Z,4612
2016-06-26T04:27:08.597Z,4664
2016-06-26T04:28:10.365Z,4736
2016-06-26T04:29:09.718Z,4808
2016-06-26T04:30:09.714Z,4880
2016-06-26T04:31:10.283Z,4980
2016-06-26T04:32:10.261Z,5084
2016-06-26T04:33:09.631Z,5164
2016-06-26T04:34:09.020Z,5212
2016-06-26T04:35:08.415Z,5240
2016-06-26T04:36:09.580Z,5276
2016-06-26T04:37:09.559Z,5332
2016-06-26T04:38:08.939Z,5344
2016-06-26T04:39:08.923Z,5412
2016-06-26T04:40:08.881Z,5444
2016-06-26T04:41:08.853Z,5508
2016-06-26T04:42:08.856Z,5568
2016-06-26T04:43:09.453Z,5644
2016-06-26T04:44:08.809Z,5724
2016-06-26T04:45:09.998Z,5860
2016-06-26T04:46:09.351Z,6080
2016-06-26T04:47:09.338Z,6612
2016-06-26T04:48:08.741Z,7512
2016-06-26T04:49:08.680Z,8936
2016-06-26T04:50:09.279Z,9896
2016-06-26T04:51:08.042Z,11480
2016-06-26T04:52:09.251Z,12136
2016-06-26T04:53:09.801Z,11924
2016-06-26T04:54:09.184Z,10932
2016-06-26T04:55:09.155Z,10492
2016-06-26T04:56:09.733Z,10260
2016-06-26T04:57:09.134Z,9388
2016-06-26T04:58:08.521Z,9400
2016-06-26T04:59:09.083Z,9316
2016-06-26T05:00:08.459Z,9832
2016-06-26T05:01:09.034Z,9216
2016-06-26T05:02:08.420Z,9308
2016-06-26T05:03:08.403Z,8504
2016-06-26T05:04:09.577Z,8928
2016-06-26T05:05:08.363Z,10132
2016-06-26T05:06:08.921Z,10616
2016-06-26T05:07:08.338Z,10256
2016-06-26T05:08:08.894Z,8732
2016-06-26T05:09:07.687Z,8708
2016-06-26T05:10:08.901Z,8220
2016-06-26T05:11:08.242Z,7572
2016-06-26T05:12:08.823Z,6796
2016-06-26T05:13:08.189Z,7260
2016-06-26T05:14:08.783Z,7624
2016-06-26T05:15:08.765Z,8684
2016-06-26T05:16:08.139Z,8576
2016-06-26T05:17:08.127Z,8728
2016-06-26T05:18:08.686Z,8764
2016-06-26T05:19:09.279Z,8908
2016-06-26T05:20:08.654Z,9348
2016-06-26T05:21:07.443Z,9684
2016-06-26T05:22:08.016Z,9836
2016-06-26T05:23:09.196Z,9628
2016-06-26T05:24:09.163Z,9908
2016-06-26T05:25:07.959Z,10996
2016-06-26T05:26:09.129Z,12944
2016-06-26T05:27:07.910Z,15068
2016-06-26T05:28:07.909Z,15876
2016-06-26T05:29:08.479Z,16352
2016-06-26T05:30:08.461Z,15316
2016-06-26T05:31:09.026Z,14344
2016-06-26T05:32:09.207Z,14304
2016-06-26T05:33:07.795Z,15168
2016-06-26T05:34:07.773Z,16320
2016-06-26T05:35:08.363Z,14580
2016-06-26T05:36:07.738Z,12808
2016-06-26T05:37:08.919Z,13068
2016-06-26T05:38:08.292Z,13448
2016-06-26T05:39:08.878Z,13692
2016-06-26T05:40:08.279Z,14504
2016-06-26T05:41:08.884Z,15256
2016-06-26T05:42:07.634Z,14284
2016-06-26T05:43:07.613Z,13164
2016-06-26T05:44:08.193Z,12608
2016-06-26T05:45:07.572Z,13212
2016-06-26T05:46:08.777Z,13280
2016-06-26T05:47:08.139Z,13520
2016-06-26T05:48:08.168Z,14344
2016-06-26T05:49:08.714Z,15332
2016-06-26T05:50:08.115Z,15284
2016-06-26T05:51:08.076Z,13948
2016-06-26T05:52:08.051Z,12964
2016-06-26T05:53:07.458Z,13048
2016-06-26T05:54:07.450Z,13480
2016-06-26T05:55:08.602Z,14772
2016-06-26T05:56:08.586Z,14008
2016-06-26T05:57:06.756Z,11352
2016-06-26T05:58:08.001Z,12508
2016-06-26T05:59:07.935Z,14796
2016-06-26T06:00:08.554Z,17132
2016-06-26T06:01:08.494Z,20800
2016-06-26T06:02:07.900Z,19520
2016-06-26T06:03:07.255Z,14588
2016-06-26T06:04:08.456Z,12312
2016-06-26T06:05:07.244Z,13256
2016-06-26T06:06:07.232Z,15652
2016-06-26T06:07:07.804Z,16736
2016-06-26T06:08:07.795Z,19456
2016-06-26T06:09:06.575Z,19104
2016-06-26T06:10:07.760Z,21600
2016-06-26T06:11:07.141Z,18816
2016-06-26T06:12:07.728Z,20064
2016-06-26T06:13:06.501Z,22624
2016-06-26T06:14:06.488Z,22560
2016-06-26T06:15:08.246Z,21984
2016-06-26T06:16:08.254Z,23200
2016-06-26T06:17:07.631Z,20256
2016-06-26T06:18:07.010Z,16224
2016-06-26T06:19:07.593Z,17856
2016-06-26T06:20:06.993Z,22752
2016-06-26T06:21:07.581Z,17276
2016-06-26T06:22:06.961Z,17036
2016-06-26T06:23:06.966Z,21888
2016-06-26T06:24:06.920Z,17888
2016-06-26T06:25:08.112Z,15204
2016-06-26T06:26:07.466Z,19744
2016-06-26T06:27:07.463Z,40224
2016-06-26T06:28:08.038Z,22240
2016-06-26T06:29:07.444Z,44960
2016-06-26T06:30:07.425Z,15716
2016-06-26T06:31:08.020Z,14240
2016-06-26T06:32:07.376Z,17704
2016-06-26T06:33:07.374Z,13788
2016-06-26T06:34:07.370Z,14488
2016-06-26T06:35:06.159Z,15888
2016-06-26T06:36:06.719Z,15396
2016-06-26T06:37:07.305Z,16728
2016-06-26T06:38:07.310Z,47520
2016-06-26T06:39:07.290Z,17320
2016-06-26T06:40:07.882Z,16224
2016-06-26T06:41:07.250Z,20608
2016-06-26T06:42:06.664Z,23008
2016-06-26T06:43:07.211Z,19488
2016-06-26T06:44:06.613Z,21312
2016-06-26T06:45:06.569Z,19648
2016-06-26T06:46:06.590Z,17608
2016-06-26T06:47:06.539Z,15196
2016-06-26T06:48:06.526Z,16064
2016-06-26T06:49:05.902Z,12548
2016-06-26T06:50:05.922Z,11116
2016-06-26T06:51:07.082Z,14732
2016-06-26T06:52:07.655Z,41088
2016-06-26T06:53:07.048Z,38048
2016-06-26T06:54:07.622Z,11604
2016-06-26T06:55:06.411Z,41632
2016-06-26T06:56:05.797Z,14168
2016-06-26T06:57:07.045Z,56224
2016-06-26T06:58:06.354Z,55168
2016-06-26T06:59:06.952Z,58144
2016-06-26T07:00:05.744Z,56512
2016-06-26T07:01:06.345Z,13044
2016-06-26T07:02:07.574Z,55968
2016-06-26T07:03:06.871Z,57408
2016-06-26T07:04:06.281Z,55552
2016-06-26T07:05:06.846Z,55264
2016-06-26T07:06:07.419Z,54432
2016-06-26T07:07:07.431Z,62208
2016-06-26T07:08:06.207Z,65216
2016-06-26T07:09:06.817Z,37184
2016-06-26T07:10:06.234Z,25088
2016-06-26T07:11:06.764Z,24256
2016-06-26T07:12:06.747Z,21216
2016-06-26T07:13:06.135Z,24640
2016-06-26T07:14:07.297Z,17360
2016-06-26T07:15:07.282Z,17008
2016-06-26T07:16:06.697Z,19968
2016-06-26T07:17:06.099Z,18752
2016-06-26T07:18:06.631Z,19904
2016-06-26T07:19:06.035Z,23840
2016-06-26T07:20:06.613Z,24736
2016-06-26T07:21:06.030Z,24512
2016-06-26T07:22:06.583Z,20416
2016-06-26T07:23:06.590Z,15060
2016-06-26T07:24:07.191Z,14676
2016-06-26T07:25:07.155Z,40672
2016-06-26T07:26:05.921Z,37792
2016-06-26T07:27:05.954Z,41536
2016-06-26T07:28:06.500Z,26624
2016-06-26T07:29:05.900Z,22816
2016-06-26T07:30:05.282Z,29152
2016-06-26T07:31:06.445Z,67872
2016-06-26T07:32:06.440Z,24736
2016-06-26T07:33:05.819Z,75008
2016-06-26T07:34:07.019Z,29696
2016-06-26T07:35:05.808Z,29120
2016-06-26T07:36:05.801Z,36096
2016-06-26T07:37:06.975Z,31392
2016-06-26T07:38:05.745Z,25952
2016-06-26T07:39:06.384Z,22720
2016-06-26T07:40:06.327Z,21344
2016-06-26T07:41:05.727Z,20896
2016-06-26T07:42:05.102Z,19456
2016-06-26T07:43:05.102Z,20768
2016-06-26T07:44:06.284Z,16360
2016-06-26T07:45:06.251Z,66400
2016-06-26T07:46:05.646Z,22112
2016-06-26T07:47:06.306Z,21824
2016-06-26T07:48:05.611Z,65184
2016-06-26T07:49:06.189Z,69472
2016-06-26T07:50:06.803Z,43776
2016-06-26T07:51:05.576Z,81088
2016-06-26T07:52:06.140Z,32928
2016-06-26T07:53:05.558Z,39552
2016-06-26T07:54:05.531Z,77312
2016-06-26T07:55:04.899Z,80128
2016-06-26T07:56:05.494Z,75136
2016-06-26T07:57:05.502Z,34752
2016-06-26T07:58:06.656Z,34496
2016-06-26T07:59:06.676Z,24896
2016-06-26T08:00:06.066Z,23776
2016-06-26T08:01:06.621Z,27232
2016-06-26T08:02:06.615Z,25824
2016-06-26T08:03:06.022Z,27136
2016-06-26T08:04:05.394Z,31104
2016-06-26T08:05:05.370Z,57952
2016-06-26T08:06:04.754Z,47488
2016-06-26T08:07:05.942Z,27360
2016-06-26T08:08:05.925Z,29056
2016-06-26T08:09:06.518Z,29600
2016-06-26T08:10:05.915Z,69376
2016-06-26T08:11:05.320Z,29792
2016-06-26T08:12:05.279Z,26144
2016-06-26T08:13:06.451Z,28416
2016-06-26T08:14:04.675Z,38624
2016-06-26T08:15:05.857Z,50368
2016-06-26T08:16:05.815Z,32032
2016-06-26T08:17:04.645Z,30560
2016-06-26T08:18:06.388Z,34784
2016-06-26T08:19:05.180Z,37952
2016-06-26T08:20:05.183Z,35616
2016-06-26T08:21:05.146Z,34304
2016-06-26T08:22:05.159Z,30016
2016-06-26T08:23:05.731Z,28992
2016-06-26T08:24:04.527Z,32128
2016-06-26T08:25:05.134Z,42880
2016-06-26T08:26:05.097Z,31904
2016-06-26T08:27:06.269Z,30560
2016-06-26T08:28:05.681Z,32864
2016-06-26T08:29:04.473Z,34208
2016-06-26T08:30:05.043Z,30432
2016-06-26T08:31:05.638Z,31552
2016-06-26T08:32:05.002Z,45056
2016-06-26T08:33:05.578Z,41600
2016-06-26T08:34:04.994Z,98656
2016-06-26T08:35:05.582Z,91296
2016-06-26T08:36:04.985Z,34912
2016-06-26T08:37:04.380Z,104768
2016-06-26T08:38:04.976Z,80608
2016-06-26T08:39:05.511Z,87264
2016-06-26T08:40:05.497Z,79360
2016-06-26T08:41:05.486Z,87456
2016-06-26T08:42:05.476Z,97408
2016-06-26T08:43:05.462Z,56064
2016-06-26T08:44:04.850Z,88160
2016-06-26T08:45:05.518Z,31904
2016-06-26T08:46:05.481Z,32064
2016-06-26T08:47:04.828Z,30368
2016-06-26T08:48:05.439Z,25728
2016-06-26T08:49:06.018Z,26304
2016-06-26T08:50:05.394Z,39328
2016-06-26T08:51:04.789Z,103872
2016-06-26T08:52:04.807Z,44288
2016-06-26T08:53:04.749Z,58720
2016-06-26T08:54:05.345Z,89344
2016-06-26T08:55:05.326Z,82560
2016-06-26T08:56:04.754Z,85056
2016-06-26T08:57:04.124Z,84288
2016-06-26T08:58:04.105Z,30560
2016-06-26T08:59:05.279Z,98176
2016-06-26T09:00:04.097Z,35168
2016-06-26T09:01:05.278Z,98624
2016-06-26T09:02:04.665Z,108224
2016-06-26T09:03:04.638Z,44832
2016-06-26T09:04:04.631Z,55680
2016-06-26T09:05:04.650Z,40736
2016-06-26T09:06:04.619Z,49472
2016-06-26T09:07:04.617Z,43808
2016-06-26T09:08:04.609Z,108224
2016-06-26T09:09:04.590Z,107936
2016-06-26T09:10:03.988Z,72032
2016-06-26T09:11:05.778Z,84448
2016-06-26T09:12:06.429Z,39040
2016-06-26T09:13:05.148Z,35616
2016-06-26T09:14:04.526Z,101280
2016-06-26T09:15:04.550Z,30976
2016-06-26T09:16:05.131Z,27200
2016-06-26T09:17:05.108Z,89856
2016-06-26T09:18:05.099Z,23840
2016-06-26T09:19:05.703Z,39104
2016-06-26T09:20:05.081Z,75776
2016-06-26T09:21:04.479Z,31424
2016-06-26T09:22:04.472Z,46560
2016-06-26T09:23:05.651Z,39200
2016-06-26T09:24:05.061Z,36544
2016-06-26T09:25:04.440Z,74464
2016-06-26T09:26:05.033Z,35872
2016-06-26T09:27:05.013Z,34432
2016-06-26T09:28:05.025Z,110624
2016-06-26T09:29:05.590Z,41920
2016-06-26T09:30:05.011Z,32192
2016-06-26T09:31:04.989Z,33568
2016-06-26T09:32:04.978Z,40864
2016-06-26T09:33:04.378Z,29824
2016-06-26T09:34:04.362Z,24320
2016-06-26T09:35:04.945Z,23744
2016-06-26T09:36:04.329Z,23072
2016-06-26T09:37:04.924Z,53632
2016-06-26T09:38:04.295Z,20192
2016-06-26T09:39:04.886Z,101248
2016-06-26T09:40:04.298Z,38048
2016-06-26T09:41:04.897Z,81856
2016-06-26T09:42:04.265Z,29216
2016-06-26T09:43:04.259Z,93216
2016-06-26T09:44:04.267Z,25952
2016-06-26T09:45:04.233Z,90400
2016-06-26T09:46:04.818Z,51136
2016-06-26T09:47:05.406Z,90496
2016-06-26T09:48:04.796Z,18832
2016-06-26T09:49:04.213Z,20864
2016-06-26T09:50:05.375Z,25088
2016-06-26T09:51:04.779Z,103424
2016-06-26T09:52:05.355Z,39104
2016-06-26T09:53:04.891Z,115840
2016-06-26T09:54:04.126Z,46784
2016-06-26T09:55:04.150Z,114720
2016-06-26T09:56:04.130Z,45792
2016-06-26T09:57:04.701Z,33728
2016-06-26T09:58:04.082Z,109216
2016-06-26T09:59:04.689Z,106752
2016-06-26T10:00:04.074Z,84480
2016-06-26T10:01:04.658Z,99008
2016-06-26T10:02:04.619Z,94848
2016-06-26T10:03:04.631Z,98752
2016-06-26T10:04:04.607Z,96288
2016-06-26T10:05:04.015Z,104800
2016-06-26T10:06:04.042Z,103840
2016-06-26T10:07:04.623Z,96000
2016-06-26T10:08:03.987Z,38688
2016-06-26T10:09:04.607Z,48544
2016-06-26T10:10:03.375Z,110240
2016-06-26T10:11:03.960Z,103616
2016-06-26T10:12:04.588Z,103360
2016-06-26T10:13:05.170Z,104832
2016-06-26T10:14:04.537Z,105920
2016-06-26T10:15:04.546Z,79136
2016-06-26T10:16:04.540Z,113472
2016-06-26T10:17:03.930Z,108448
2016-06-26T10:18:03.941Z,34560
2016-06-26T10:19:05.109Z,22848
2016-06-26T10:20:04.542Z,20352
2016-06-26T10:21:03.926Z,22432
2016-06-26T10:22:04.501Z,24192
2016-06-26T10:23:05.083Z,26560
2016-06-26T10:24:04.479Z,34432
2016-06-26T10:25:04.000Z,39072
2016-06-26T10:26:05.061Z,41696
2016-06-26T10:27:04.450Z,41920
2016-06-26T10:28:04.457Z,65952
2016-06-26T10:29:04.430Z,98880
2016-06-26T10:30:03.824Z,81952
2016-06-26T10:31:03.833Z,103680
2016-06-26T10:32:05.064Z,101888
2016-06-26T10:33:04.411Z,103232
2016-06-26T10:34:03.214Z,99744
2016-06-26T10:35:04.379Z,98080
2016-06-26T10:36:04.969Z,103968
2016-06-26T10:37:03.759Z,108832
2016-06-26T10:38:04.366Z,23680
2016-06-26T10:39:04.335Z,27328
2016-06-26T10:40:04.937Z,30016
2016-06-26T10:41:04.946Z,32352
2016-06-26T10:42:03.751Z,109696
2016-06-26T10:43:04.918Z,104512
2016-06-26T10:44:04.326Z,104064
2016-06-26T10:45:03.684Z,109344
2016-06-26T10:46:04.309Z,105504
2016-06-26T10:47:04.400Z,110880
2016-06-26T10:48:03.664Z,110176
2016-06-26T10:49:04.288Z,110912
2016-06-26T10:50:04.847Z,117792
2016-06-26T10:51:03.649Z,80704
2016-06-26T10:52:04.240Z,29824
2016-06-26T10:53:04.876Z,44768
2016-06-26T10:54:04.239Z,36192
2016-06-26T10:55:04.226Z,22784
2016-06-26T10:56:04.862Z,25536
2016-06-26T10:57:03.004Z,116320
2016-06-26T10:58:03.626Z,53920
2016-06-26T10:59:04.801Z,114752
2016-06-26T11:00:03.586Z,32672
2016-06-26T11:01:03.578Z,25888
2016-06-26T11:02:03.597Z,23200
2016-06-26T11:03:03.607Z,26816
2016-06-26T11:04:04.196Z,116256
2016-06-26T11:05:04.168Z,110784
2016-06-26T11:06:04.753Z,103072
2016-06-26T11:07:04.142Z,42688
2016-06-26T11:08:04.126Z,26144
2016-06-26T11:09:04.719Z,101760
2016-06-26T11:10:04.131Z,101504
2016-06-26T11:11:03.521Z,34400
2016-06-26T11:12:03.512Z,105248
2016-06-26T11:13:04.083Z,29216
2016-06-26T11:14:04.103Z,34016
2016-06-26T11:15:04.051Z,79648
2016-06-26T11:16:04.089Z,43968
2016-06-26T11:17:04.085Z,96448
2016-06-26T11:18:03.448Z,116960
2016-06-26T11:19:03.449Z,48320
2016-06-26T11:20:04.026Z,112416
2016-06-26T11:21:04.028Z,108000
2016-06-26T11:22:04.024Z,102656
2016-06-26T11:23:04.650Z,101792
2016-06-26T11:24:03.395Z,103328
2016-06-26T11:25:03.412Z,105408
2016-06-26T11:26:04.602Z,105440
2016-06-26T11:27:02.801Z,105312
2016-06-26T11:28:03.375Z,105440
2016-06-26T11:29:02.782Z,108864
2016-06-26T11:30:03.977Z,105024
2016-06-26T11:31:04.006Z,97568
2016-06-26T11:32:04.581Z,96512
2016-06-26T11:33:03.970Z,102912
2016-06-26T11:34:03.351Z,107136
2016-06-26T11:35:03.965Z,107360
2016-06-26T11:36:04.541Z,107072
2016-06-26T11:37:04.575Z,84800
2016-06-26T11:38:03.958Z,18624
2016-06-26T11:39:03.362Z,107424
2016-06-26T11:40:03.937Z,56672
2016-06-26T11:41:03.962Z,113536
2016-06-26T11:42:03.931Z,116512
2016-06-26T11:43:04.522Z,95712
2016-06-26T11:44:02.725Z,114400
2016-06-26T11:45:04.155Z,90272
2016-06-26T11:46:03.914Z,32224
2016-06-26T11:47:03.296Z,31872
2016-06-26T11:48:03.933Z,110976
2016-06-26T11:49:03.300Z,109792
2016-06-26T11:50:03.312Z,105280
2016-06-26T11:51:04.506Z,110592
2016-06-26T11:52:03.289Z,108256
2016-06-26T11:53:03.285Z,104224
2016-06-26T11:54:03.881Z,106176
2016-06-26T11:55:04.522Z,107968
2016-06-26T11:56:03.879Z,108960
2016-06-26T11:57:03.267Z,107040
2016-06-26T11:58:03.883Z,101216
2016-06-26T11:59:03.848Z,100160
2016-06-26T12:00:03.276Z,109184
2016-06-26T12:01:04.470Z,112736
2016-06-26T12:02:03.886Z,116672
2016-06-26T12:03:03.855Z,116384
2016-06-26T12:04:03.848Z,115520
2016-06-26T12:05:03.263Z,115584
2016-06-26T12:06:04.455Z,111456
2016-06-26T12:07:03.261Z,111136
2016-06-26T12:08:03.840Z,112736
2016-06-26T12:09:03.878Z,111808
2016-06-26T12:10:04.482Z,111168
2016-06-26T12:11:03.854Z,110720
2016-06-26T12:12:03.250Z,111296
2016-06-26T12:13:03.255Z,111680
2016-06-26T12:14:03.250Z,108256
2016-06-26T12:15:03.232Z,74368
2016-06-26T12:16:02.634Z,27392
2016-06-26T12:17:03.834Z,110368
2016-06-26T12:18:03.849Z,75552
2016-06-26T12:19:04.418Z,119776
2016-06-26T12:20:03.844Z,56192
2016-06-26T12:21:04.427Z,29632
2016-06-26T12:22:02.863Z,34912
2016-06-26T12:23:03.235Z,46048
2016-06-26T12:24:03.842Z,115936
2016-06-26T12:25:04.458Z,114144
2016-06-26T12:26:02.631Z,35296
2016-06-26T12:27:03.227Z,65152
2016-06-26T12:28:03.197Z,63552
2016-06-26T12:29:03.225Z,70112
2016-06-26T12:30:03.826Z,104704
2016-06-26T12:31:03.822Z,104736
2016-06-26T12:32:03.802Z,104896
2016-06-26T12:33:03.223Z,105120
2016-06-26T12:34:04.379Z,104416
2016-06-26T12:35:02.630Z,77344
2016-06-26T12:36:03.191Z,108000
2016-06-26T12:37:03.809Z,105504
2016-06-26T12:38:04.401Z,103360
2016-06-26T12:39:04.419Z,104416
2016-06-26T12:40:03.769Z,83200
2016-06-26T12:41:03.165Z,103136
2016-06-26T12:42:03.754Z,48608
2016-06-26T12:43:04.352Z,101504
2016-06-26T12:44:03.174Z,54656
2016-06-26T12:45:03.765Z,108128
2016-06-26T12:46:03.791Z,110176
2016-06-26T12:47:03.170Z,110656
2016-06-26T12:48:03.155Z,104512
2016-06-26T12:49:03.784Z,79168
2016-06-26T12:50:02.572Z,69088
2016-06-26T12:51:04.346Z,112736
2016-06-26T12:52:03.159Z,31136
2016-06-26T12:53:04.368Z,29856
2016-06-26T12:54:03.167Z,28192
2016-06-26T12:55:03.763Z,28352
2016-06-26T12:56:03.147Z,30112
2016-06-26T12:57:02.566Z,27520
2016-06-26T12:58:03.787Z,22944
2016-06-26T12:59:03.155Z,31296
2016-06-26T13:00:04.363Z,104320
2016-06-26T13:01:04.357Z,52864
2016-06-26T13:02:04.332Z,28864
2016-06-26T13:03:03.776Z,27712
2016-06-26T13:04:03.129Z,112768
2016-06-26T13:05:03.748Z,112352
2016-06-26T13:06:03.727Z,111232
2016-06-26T13:07:03.123Z,108576
2016-06-26T13:08:04.299Z,106240
2016-06-26T13:09:03.097Z,104096
2016-06-26T13:10:03.140Z,28416
2016-06-26T13:11:03.702Z,27680
2016-06-26T13:12:02.495Z,49664
2016-06-26T13:13:03.678Z,36192
2016-06-26T13:14:03.686Z,29952
2016-06-26T13:15:03.688Z,23872
2016-06-26T13:16:04.283Z,25088